Terminal Aerodrome Forecast
Issued by NWS

Home | Current Version | Previous Version | Text Only | Print | Product List | Glossary On
Versions: 1 2 3 4 5 6 7 8 9 10 11 12
000
FTUS45 KRIW 302336
TAFBPI
TAF
KBPI 302336Z 3100/3124 28015G25KT P6SM SCT080
     FM310200 31012G18KT P6SM FEW110
     FM310700 34009KT P6SM SKC
     FM312100 25012KT P6SM FEW070=

USA.gov is the U.S. government's official web portal to all federal, state and local government web resources and services.